Time;durP1;ratioP1;P1;durP2;ratioP2;P2;SDS_P1;SDS_P2;PMS_P1;PMS_P2;Temp;Humidity;BMP_temperature;BMP_pressure;BME280_temperature;BME280_humidity;BME280_pressure;Samples;Min_cycle;Max_cycle;Signal;HPM_P1;HPM_P2
2022/08/14 00:00:49;;;;;;;47.53;45.17;;;16.80;99.90;;;;;;4972857;28;20210;-74
2022/08/14 00:03:24;;;;;;;26.67;25.20;;;16.70;99.90;;;;;;4972920;28;20172;-74
2022/08/14 00:05:51;;;;;;;31.80;30.03;;;16.60;99.90;;;;;;4971890;28;20185;-74
2022/08/14 00:08:17;;;;;;;16.00;15.20;;;16.60;99.90;;;;;;4971022;28;20188;-74
2022/08/14 00:10:43;;;;;;;14.13;13.27;;;16.50;99.90;;;;;;4973087;28;20209;-74
2022/08/14 00:13:10;;;;;;;13.23;12.53;;;16.50;99.90;;;;;;4972971;28;20183;-74
2022/08/14 00:15:39;;;;;;;53.60;50.97;;;16.50;99.90;;;;;;4991080;28;20199;-76
2022/08/14 00:18:08;;;;;;;145.57;138.10;;;16.40;99.90;;;;;;4991756;28;20203;-74
2022/08/14 00:20:39;;;;;;;162.67;154.00;;;16.40;99.90;;;;;;4992271;28;20209;-74
2022/08/14 00:23:07;;;;;;;166.70;158.30;;;16.40;99.90;;;;;;4992879;28;20239;-74
2022/08/14 00:25:33;;;;;;;90.37;85.93;;;16.50;99.90;;;;;;4993464;28;20188;-75
2022/08/14 00:27:59;;;;;;;90.50;85.93;;;16.50;99.90;;;;;;4991357;28;20185;-75
2022/08/14 00:30:25;;;;;;;181.37;172.07;;;16.50;99.90;;;;;;4991775;28;20770;-75
2022/08/14 00:32:50;;;;;;;132.10;125.20;;;16.40;99.90;;;;;;4992033;28;20776;-74
2022/08/14 00:35:16;;;;;;;101.67;96.57;;;16.30;99.90;;;;;;4991962;28;20172;-74
2022/08/14 00:37:44;;;;;;;99.47;94.47;;;16.30;99.90;;;;;;4991115;28;20266;-74
2022/08/14 00:40:12;;;;;;;94.50;89.67;;;16.20;99.90;;;;;;4991959;28;20635;-74
2022/08/14 00:42:39;;;;;;;122.30;116.10;;;16.30;99.90;;;;;;4991879;28;20203;-73
2022/08/14 00:45:07;;;;;;;100.07;95.03;;;16.20;99.90;;;;;;4992051;28;20588;-74
2022/08/14 00:47:34;;;;;;;117.77;111.67;;;16.20;99.90;;;;;;4990473;28;20239;-77
2022/08/14 00:50:02;;;;;;;115.83;109.77;;;16.10;99.90;;;;;;4992101;28;20707;-75
2022/08/14 00:52:30;;;;;;;79.70;75.70;;;16.10;99.90;;;;;;4991916;28;20184;-75
2022/08/14 00:54:56;;;;;;;73.50;69.40;;;16.10;99.90;;;;;;4991591;28;20238;-75
2022/08/14 00:57:28;;;;;;;34.07;32.37;;;15.90;99.90;;;;;;4989756;28;20311;-74
2022/08/14 00:59:56;;;;;;;23.37;22.13;;;15.90;99.90;;;;;;4991695;28;20283;-75
2022/08/14 01:02:26;;;;;;;32.63;30.93;;;15.80;99.90;;;;;;5006469;28;20219;-77
2022/08/14 01:04:56;;;;;;;34.80;32.60;;;15.70;99.90;;;;;;4991416;28;20739;-76
2022/08/14 01:07:24;;;;;;;49.00;45.93;;;15.70;99.90;;;;;;4990936;28;20188;-75
2022/08/14 01:09:57;;;;;;;155.03;146.43;;;15.70;99.90;;;;;;5006975;28;20215;-76
2022/08/14 01:12:25;;;;;;;176.90;166.83;;;15.70;99.90;;;;;;4991546;28;20278;-74
2022/08/14 01:14:54;;;;;;;200.30;189.00;;;15.70;99.90;;;;;;4991725;28;20222;-74
2022/08/14 01:21:02;;;;;;;119.30;112.50;;;15.80;99.90;;;;;;4991407;28;20211;-74
2022/08/14 01:22:55;;;;;;;106.80;100.63;;;15.70;99.90;;;;;;4991184;28;20667;-74
2022/08/14 01:25:21;;;;;;;85.27;80.83;;;15.70;99.90;;;;;;4990404;28;20272;-75
2022/08/14 01:27:48;;;;;;;24.50;23.17;;;15.70;99.90;;;;;;4991139;28;20247;-75
2022/08/14 01:30:14;;;;;;;50.03;47.40;;;15.60;99.90;;;;;;4990147;28;20220;-74
2022/08/14 01:32:40;;;;;;;68.37;64.77;;;15.60;99.90;;;;;;4991339;28;20657;-74
2022/08/14 01:35:07;;;;;;;15.93;14.73;;;15.60;99.90;;;;;;4991687;28;20591;-75
2022/08/14 01:37:33;;;;;;;53.03;50.20;;;15.60;99.90;;;;;;4990757;28;20212;-74
2022/08/14 01:40:00;;;;;;;77.27;73.23;;;15.50;99.90;;;;;;4990199;28;20342;-75
2022/08/14 01:42:28;;;;;;;217.63;205.73;;;15.50;99.90;;;;;;4991167;28;20180;-74
2022/08/14 01:44:56;;;;;;;253.30;240.13;;;15.30;99.90;;;;;;4990509;28;20187;-74
2022/08/14 01:47:22;;;;;;;189.97;179.97;;;15.30;99.90;;;;;;4990736;28;20222;-74
2022/08/14 01:49:50;;;;;;;193.17;183.00;;;15.30;99.90;;;;;;4990444;28;20611;-74
2022/08/14 01:52:16;;;;;;;222.90;211.20;;;15.40;99.90;;;;;;4991164;28;20189;-74
2022/08/14 01:54:43;;;;;;;261.23;247.60;;;15.40;99.90;;;;;;4991504;28;20184;-73
2022/08/14 01:57:10;;;;;;;247.07;233.70;;;15.50;99.90;;;;;;4990486;28;20614;-73
2022/08/14 01:59:39;;;;;;;256.17;242.77;;;15.40;99.90;;;;;;4990077;28;20677;-74
2022/08/14 02:02:14;;;;;;;229.70;217.37;;;15.30;99.90;;;;;;4993636;28;20645;-74
2022/08/14 02:04:40;;;;;;;220.70;209.23;;;15.40;99.90;;;;;;4994653;28;20671;-75
2022/08/14 02:07:08;;;;;;;207.00;195.83;;;15.30;99.90;;;;;;4992775;28;20228;-74
2022/08/14 02:09:37;;;;;;;186.97;177.27;;;15.30;99.90;;;;;;4994176;28;20287;-74
2022/08/14 02:12:07;;;;;;;191.57;181.67;;;15.30;99.90;;;;;;4994674;28;20194;-74
2022/08/14 02:14:34;;;;;;;199.27;189.20;;;15.20;99.90;;;;;;4994597;28;20255;-74
2022/08/14 02:17:00;;;;;;;174.60;165.70;;;15.20;99.90;;;;;;4993756;28;20204;-75
2022/08/14 02:19:30;;;;;;;190.53;180.77;;;15.10;99.90;;;;;;4992587;28;20182;-74
2022/08/14 02:21:58;;;;;;;161.33;152.67;;;15.10;99.90;;;;;;4993216;28;20259;-75
2022/08/14 02:24:28;;;;;;;170.60;161.73;;;15.00;99.90;;;;;;4994397;28;20676;-74
2022/08/14 02:26:57;;;;;;;164.13;155.77;;;15.00;99.90;;;;;;4993733;28;20188;-76
2022/08/14 02:29:24;;;;;;;149.97;142.37;;;15.00;99.90;;;;;;4993969;28;20204;-73
2022/08/14 02:31:53;;;;;;;138.50;131.33;;;14.90;99.90;;;;;;5050134;23;20218;-73
2022/08/14 02:34:32;;;;;;;137.57;130.73;;;14.80;99.90;;;;;;5033528;28;20198;-73
2022/08/14 02:37:01;;;;;;;117.40;111.07;;;14.80;99.90;;;;;;5032640;28;20710;-73
2022/08/14 02:39:29;;;;;;;111.60;106.00;;;14.80;99.90;;;;;;5033019;28;20278;-73
2022/08/14 02:41:56;;;;;;;87.47;82.97;;;14.80;99.90;;;;;;5033087;28;20203;-73
2022/08/14 02:44:22;;;;;;;76.10;72.30;;;14.70;99.90;;;;;;5032129;28;20175;-73
2022/08/14 02:46:50;;;;;;;77.30;73.30;;;14.70;99.90;;;;;;5032510;28;20624;-73
2022/08/14 02:49:16;;;;;;;66.00;62.67;;;14.60;99.90;;;;;;5032894;28;20183;-73
2022/08/14 02:51:47;;;;;;;84.63;80.13;;;14.70;99.90;;;;;;5031811;28;20203;-73
2022/08/14 02:54:13;;;;;;;63.73;60.53;;;14.70;99.90;;;;;;5033070;28;20186;-73
2022/08/14 02:56:39;;;;;;;82.87;78.73;;;14.60;99.90;;;;;;5031836;28;20741;-73
2022/08/14 02:59:06;;;;;;;41.70;39.57;;;14.50;99.90;;;;;;5032804;28;20175;-73
2022/08/14 03:01:34;;;;;;;57.70;54.73;;;14.30;99.90;;;;;;5033905;28;20222;-73
2022/08/14 03:04:03;;;;;;;55.40;52.30;;;14.00;99.90;;;;;;5032996;28;20652;-73
2022/08/14 03:06:28;;;;;;;77.30;73.37;;;14.00;99.90;;;;;;5033252;28;20600;-73
2022/08/14 03:08:55;;;;;;;78.23;73.97;;;13.90;99.90;;;;;;5031363;28;20187;-73
2022/08/14 03:11:21;;;;;;;91.93;87.33;;;14.10;99.90;;;;;;5032604;28;20729;-73
2022/08/14 03:13:52;;;;;;;76.53;72.73;;;14.10;99.90;;;;;;5032623;28;20187;-73
2022/08/14 03:16:25;;;;;;;75.67;71.90;;;14.10;99.90;;;;;;5032890;28;20207;-73
2022/08/14 03:18:53;;;;;;;86.10;81.30;;;14.10;99.90;;;;;;5031786;28;20640;-73
2022/08/14 03:21:21;;;;;;;49.90;47.33;;;14.10;99.90;;;;;;5032276;28;20203;-73
2022/08/14 03:23:50;;;;;;;37.57;35.57;;;14.20;99.90;;;;;;5032399;28;20183;-73
2022/08/14 03:26:19;;;;;;;26.03;24.60;;;14.20;99.90;;;;;;5031293;28;20183;-73
2022/08/14 03:28:49;;;;;;;32.33;30.47;;;14.20;99.90;;;;;;5031980;28;20283;-73
2022/08/14 03:31:18;;;;;;;29.03;27.03;;;14.20;99.90;;;;;;5032205;28;20257;-73
2022/08/14 03:33:44;;;;;;;42.00;39.67;;;14.10;99.90;;;;;;5031108;28;20236;-73
2022/08/14 03:36:13;;;;;;;47.30;44.67;;;14.10;99.90;;;;;;5030791;28;20210;-73
2022/08/14 03:38:41;;;;;;;22.27;21.13;;;14.20;99.90;;;;;;5031301;28;20598;-73
2022/08/14 03:41:19;;;;;;;21.63;20.30;;;14.10;99.90;;;;;;5032223;28;20579;-74
2022/08/14 03:43:47;;;;;;;45.17;42.77;;;14.00;99.90;;;;;;5030841;28;20688;-75
2022/08/14 03:46:14;;;;;;;42.67;40.17;;;14.00;99.90;;;;;;5032130;28;20555;-74
2022/08/14 03:48:42;;;;;;;31.07;29.50;;;14.00;99.90;;;;;;5031235;28;20179;-74
2022/08/14 03:51:09;;;;;;;22.60;21.40;;;14.00;99.90;;;;;;5031509;28;20578;-74
2022/08/14 03:53:36;;;;;;;20.73;19.43;;;14.00;99.90;;;;;;5031001;28;20621;-74
2022/08/14 03:56:06;;;;;;;17.23;16.30;;;13.90;99.90;;;;;;5030698;28;20280;-74
2022/08/14 03:58:33;;;;;;;19.00;17.90;;;13.90;99.90;;;;;;5032150;28;20207;-74
2022/08/14 04:01:00;;;;;;;18.03;17.03;;;13.80;99.90;;;;;;5033256;28;20679;-74
2022/08/14 04:03:26;;;;;;;33.97;32.10;;;13.70;99.90;;;;;;5030984;28;20175;-74
2022/08/14 04:05:52;;;;;;;24.03;22.27;;;13.80;99.90;;;;;;5031837;28;20181;-74
2022/08/14 04:08:19;;;;;;;20.67;19.27;;;13.80;99.90;;;;;;5030945;28;20671;-74
2022/08/14 04:10:46;;;;;;;20.20;19.20;;;13.80;99.90;;;;;;5031553;28;20604;-74
2022/08/14 04:13:16;;;;;;;18.97;17.87;;;13.70;99.90;;;;;;5030884;28;20189;-74
2022/08/14 04:15:45;;;;;;;66.37;63.00;;;13.60;99.90;;;;;;5030388;28;20178;-75
2022/08/14 04:18:12;;;;;;;34.97;33.03;;;13.60;99.90;;;;;;5029178;28;20178;-74
2022/08/14 04:20:39;;;;;;;22.57;21.13;;;13.40;99.90;;;;;;5031467;28;20207;-74
2022/08/14 04:23:06;;;;;;;28.87;27.33;;;13.40;99.90;;;;;;5029802;28;20195;-76
2022/08/14 04:25:35;;;;;;;32.13;30.50;;;13.40;99.90;;;;;;5031564;28;20190;-76
2022/08/14 04:28:04;;;;;;;22.30;20.97;;;13.50;99.90;;;;;;5029595;28;20179;-74
2022/08/14 04:30:38;;;;;;;26.17;24.67;;;13.60;99.90;;;;;;5030213;28;20344;-74
2022/08/14 04:33:07;;;;;;;25.93;24.40;;;13.70;99.90;;;;;;5031099;28;20216;-75
2022/08/14 04:35:34;;;;;;;30.00;28.47;;;13.70;99.90;;;;;;5031326;28;20266;-73
2022/08/14 04:43:38;;;;;;;17.27;16.10;;;14.00;99.90;;;;;;5032030;28;20213;-73
2022/08/14 04:46:10;;;;;;;12.10;11.30;;;14.00;99.90;;;;;;5031735;28;20167;-74
2022/08/14 04:48:37;;;;;;;12.37;11.67;;;14.00;99.90;;;;;;5027420;28;20183;-74
2022/08/14 04:51:06;;;;;;;11.50;10.80;;;14.10;99.90;;;;;;5029811;28;20207;-74
2022/08/14 04:53:35;;;;;;;11.17;10.47;;;14.20;99.90;;;;;;5030563;28;20179;-74
2022/08/14 04:56:01;;;;;;;12.20;11.40;;;14.20;99.90;;;;;;5029015;28;20214;-74
2022/08/14 04:58:29;;;;;;;14.97;13.97;;;14.40;99.90;;;;;;5029683;28;20178;-74
2022/08/14 05:00:56;;;;;;;20.20;18.87;;;14.40;99.90;;;;;;5030544;28;20583;-74
2022/08/14 05:03:27;;;;;;;92.07;87.50;;;14.50;99.90;;;;;;5028853;28;20340;-74
2022/08/14 05:05:55;;;;;;;36.00;34.03;;;14.50;99.90;;;;;;5029604;28;20176;-74
2022/08/14 05:08:22;;;;;;;66.23;62.63;;;14.60;99.90;;;;;;5029577;28;20274;-74
2022/08/14 05:10:55;;;;;;;94.43;89.67;;;14.80;99.90;;;;;;5030067;28;20888;-74
2022/08/14 05:13:23;;;;;;;230.83;218.90;;;15.00;99.90;;;;;;5028924;28;20178;-74
2022/08/14 05:15:53;;;;;;;85.73;81.20;;;15.30;99.90;;;;;;5030633;28;20183;-74
2022/08/14 05:18:22;;;;;;;8.70;8.00;;;15.60;99.90;;;;;;5029217;28;20175;-72
2022/08/14 05:20:51;;;;;;;103.77;98.57;;;16.10;99.90;;;;;;5030472;28;20199;-74
2022/08/14 05:23:19;;;;;;;75.03;71.30;;;16.70;99.90;;;;;;5030456;28;20241;-72
2022/08/14 05:25:46;;;;;;;47.13;44.73;;;17.20;99.90;;;;;;5029819;28;20171;-72
2022/08/14 05:28:20;;;;;;;103.13;97.97;;;17.70;99.90;;;;;;5029621;28;20191;-72
2022/08/14 05:30:48;;;;;;;53.47;50.80;;;18.10;99.90;;;;;;5029306;28;20225;-74
2022/08/14 05:33:17;;;;;;;14.18;13.35;;;18.60;99.90;;;;;;5029641;28;20206;-73
2022/08/14 05:35:47;;;;;;;10.02;9.23;;;19.10;99.90;;;;;;5033132;28;20292;-73
2022/08/14 05:38:15;;;;;;;9.63;8.93;;;19.60;99.90;;;;;;5032228;28;20329;-73
2022/08/14 05:40:42;;;;;;;8.73;8.23;;;20.00;99.90;;;;;;5033625;28;20202;-73
2022/08/14 05:43:09;;;;;;;22.23;20.90;;;20.40;99.90;;;;;;5037267;28;20179;-73
2022/08/14 05:45:35;;;;;;;25.25;23.98;;;20.80;99.90;;;;;;5035165;28;20205;-73
2022/08/14 05:48:03;;;;;;;15.60;14.68;;;21.10;99.90;;;;;;5032404;28;20183;-73
2022/08/14 05:50:29;;;;;;;8.10;7.50;;;21.30;99.90;;;;;;5033991;28;20199;-73
2022/08/14 05:52:57;;;;;;;8.25;7.43;;;21.40;99.90;;;;;;5032761;28;20545;-73
2022/08/14 05:55:23;;;;;;;9.90;9.30;;;21.70;99.90;;;;;;5033342;28;20194;-73
2022/08/14 05:57:51;;;;;;;7.25;6.53;;;22.20;99.90;;;;;;5032913;28;20223;-73
2022/08/14 06:00:19;;;;;;;7.35;6.70;;;22.50;99.90;;;;;;5033805;28;20657;-73
2022/08/14 06:02:45;;;;;;;7.32;6.70;;;22.20;99.60;;;;;;5033178;28;20179;-73
2022/08/14 06:05:11;;;;;;;7.28;6.88;;;22.10;99.20;;;;;;5034188;28;20182;-73
2022/08/14 06:07:37;;;;;;;7.47;7.07;;;22.10;99.40;;;;;;5031463;28;20191;-73
2022/08/14 06:10:05;;;;;;;6.97;6.63;;;22.20;98.70;;;;;;5031590;28;20203;-73
2022/08/14 06:12:31;;;;;;;7.68;7.18;;;22.30;98.70;;;;;;5032582;28;20178;-73
2022/08/14 06:14:56;;;;;;;6.72;6.30;;;22.80;97.60;;;;;;5033599;28;20325;-73
2022/08/14 06:17:22;;;;;;;9.25;8.73;;;22.80;97.10;;;;;;5032248;28;20217;-73
2022/08/14 06:19:48;;;;;;;7.45;7.00;;;23.00;97.00;;;;;;5033988;28;20179;-74
2022/08/14 06:22:14;;;;;;;11.75;11.00;;;23.50;95.30;;;;;;5032251;28;20191;-74
2022/08/14 06:24:40;;;;;;;10.70;10.10;;;23.70;95.30;;;;;;5032987;28;20182;-74
2022/08/14 06:27:05;;;;;;;9.85;9.02;;;23.80;94.70;;;;;;5031441;28;20280;-73
2022/08/14 06:29:33;;;;;;;9.07;8.57;;;24.30;93.70;;;;;;5033494;28;20183;-73
2022/08/14 06:31:59;;;;;;;13.82;13.15;;;24.70;92.90;;;;;;5034891;28;20217;-74
2022/08/14 06:34:25;;;;;;;13.63;12.82;;;25.20;91.40;;;;;;5033076;28;20229;-74
2022/08/14 06:36:52;;;;;;;17.17;16.30;;;25.20;90.70;;;;;;5032231;28;20691;-72
2022/08/14 06:39:18;;;;;;;14.70;13.88;;;25.20;90.00;;;;;;5031406;28;20175;-73
2022/08/14 06:41:43;;;;;;;15.93;15.13;;;25.20;90.00;;;;;;5032089;28;20630;-73
2022/08/14 06:44:09;;;;;;;15.88;15.10;;;25.30;89.10;;;;;;5033052;28;20334;-72
2022/08/14 06:46:35;;;;;;;13.07;12.48;;;25.70;87.90;;;;;;5032552;28;20221;-72
2022/08/14 06:49:01;;;;;;;21.20;20.20;;;25.90;86.50;;;;;;5032068;28;20286;-72
2022/08/14 06:51:27;;;;;;;16.23;15.40;;;25.90;86.10;;;;;;5031698;28;20207;-72
2022/08/14 06:53:53;;;;;;;19.15;18.15;;;26.20;84.40;;;;;;5031053;28;20179;-72
2022/08/14 06:56:19;;;;;;;17.20;16.40;;;26.00;83.90;;;;;;5032821;28;20237;-73
2022/08/14 06:58:45;;;;;;;20.45;19.40;;;26.30;83.70;;;;;;5031707;28;20187;-73
2022/08/14 07:06:41;;;;;;;18.30;17.30;;;26.60;81.50;;;;;;5012477;28;20194;-72
2022/08/14 07:09:10;;;;;;;19.45;18.17;;;26.80;79.40;;;;;;5014387;28;20209;-71
2022/08/14 07:11:37;;;;;;;15.20;14.32;;;26.90;80.20;;;;;;5027790;28;20214;-72
2022/08/14 07:14:03;;;;;;;13.82;13.02;;;27.30;79.00;;;;;;5032496;28;20179;-72
2022/08/14 07:16:29;;;;;;;12.38;11.70;;;27.50;76.90;;;;;;5031434;28;20225;-72
2022/08/14 07:18:55;;;;;;;10.43;9.93;;;27.40;77.70;;;;;;5031032;28;20269;-73
2022/08/14 07:21:21;;;;;;;11.90;11.18;;;27.50;76.10;;;;;;5031314;28;20290;-73
2022/08/14 07:23:47;;;;;;;9.32;8.73;;;27.60;76.10;;;;;;5030707;28;20183;-73
2022/08/14 07:26:13;;;;;;;9.50;7.40;;;27.90;74.90;;;;;;5032402;28;20252;-73
2022/08/14 07:28:39;;;;;;;10.02;9.45;;;28.10;73.80;;;;;;5030068;28;20593;-73
2022/08/14 07:31:10;;;;;;;14.10;13.40;;;28.40;72.70;;;;;;5031436;28;20219;-73
2022/08/14 07:33:44;;;;;;;15.85;14.98;;;28.40;72.20;;;;;;5032249;28;20877;-73
2022/08/14 07:36:13;;;;;;;56.65;50.45;;;28.70;71.90;;;;;;5031771;28;20210;-73
2022/08/14 07:38:42;;;;;;;13.45;12.73;;;29.10;70.30;;;;;;5030795;28;20194;-73
2022/08/14 07:41:10;;;;;;;9.13;8.55;;;29.50;68.70;;;;;;5032703;28;20203;-78
2022/08/14 07:43:36;;;;;;;8.20;7.40;;;29.60;68.60;;;;;;5049753;28;20277;-79
2022/08/14 07:46:04;;;;;;;5.78;5.43;;;29.90;66.50;;;;;;5033433;28;20175;-78
2022/08/14 07:48:30;;;;;;;5.00;4.80;;;30.10;66.10;;;;;;5038907;28;20565;-79
2022/08/14 07:50:56;;;;;;;5.20;4.82;;;30.30;66.30;;;;;;5051714;28;20213;-80
2022/08/14 07:53:23;;;;;;;5.65;5.20;;;30.50;63.20;;;;;;5051063;28;20197;-79
2022/08/14 07:55:49;;;;;;;6.00;5.70;;;30.50;65.70;;;;;;5033724;28;20194;-79
2022/08/14 07:58:16;;;;;;;11.38;10.68;;;30.80;63.10;;;;;;5027662;28;20179;-79
2022/08/14 08:00:43;;;;;;;17.85;16.77;;;30.90;60.20;;;;;;5030736;28;20214;-79
2022/08/14 08:03:09;;;;;;;35.75;34.00;;;31.10;60.00;;;;;;5033102;28;20182;-79
2022/08/14 08:05:38;;;;;;;18.27;17.35;;;30.90;58.20;;;;;;5030843;28;20191;-80
2022/08/14 08:08:05;;;;;;;26.73;25.38;;;30.70;60.00;;;;;;5033632;28;20175;-77
2022/08/14 08:10:32;;;;;;;23.58;22.35;;;30.70;59.00;;;;;;5032179;28;20226;-79
2022/08/14 08:13:01;;;;;;;41.53;39.33;;;30.80;59.70;;;;;;5033864;28;20225;-79
2022/08/14 08:15:30;;;;;;;50.45;47.95;;;30.80;58.70;;;;;;5031993;28;20178;-79
2022/08/14 08:17:56;;;;;;;64.95;61.72;;;31.00;58.40;;;;;;5030253;28;20199;-79
2022/08/14 08:20:25;;;;;;;93.65;89.25;;;31.20;57.30;;;;;;5031181;28;20264;-79
2022/08/14 08:22:51;;;;;;;111.28;105.97;;;31.60;57.90;;;;;;5031307;28;20175;-79
2022/08/14 08:25:18;;;;;;;131.38;125.20;;;31.50;55.40;;;;;;5031824;28;20213;-79
2022/08/14 08:27:57;;;;;;;111.72;106.32;;;31.50;55.50;;;;;;5030643;28;20205;-79
2022/08/14 08:30:24;;;;;;;70.90;67.55;;;31.20;55.00;;;;;;5068433;23;20214;-78
2022/08/14 08:32:51;;;;;;;23.10;21.70;;;30.30;55.40;;;;;;5014311;28;20188;-76
2022/08/14 08:35:23;;;;;;;7.68;7.32;;;29.70;57.10;;;;;;5016407;28;20184;-77
2022/08/14 08:37:51;;;;;;;6.25;5.85;;;29.50;57.90;;;;;;5022822;28;20241;-75
2022/08/14 08:40:30;;;;;;;5.45;4.97;;;29.50;57.80;;;;;;5024477;28;20180;-76
2022/08/14 08:42:56;;;;;;;6.03;5.57;;;29.70;58.20;;;;;;5014917;28;20182;-76
2022/08/14 08:45:22;;;;;;;6.03;5.63;;;30.10;57.30;;;;;;5013491;28;20179;-78
2022/08/14 08:47:49;;;;;;;6.47;6.18;;;29.90;57.50;;;;;;5012442;28;20191;-77
2022/08/14 08:50:31;;;;;;;9.00;8.38;;;30.20;56.00;;;;;;5011588;28;20182;-77
2022/08/14 08:53:06;;;;;;;10.15;9.65;;;30.50;56.10;;;;;;5012355;28;20189;-77
2022/08/14 08:55:43;;;;;;;19.85;18.70;;;30.70;55.70;;;;;;5011814;28;20215;-77
2022/08/14 08:58:16;;;;;;;15.20;14.40;;;30.30;54.80;;;;;;5010790;28;20210;-77
2022/08/14 09:00:56;;;;;;;8.43;7.97;;;30.10;54.70;;;;;;5010068;28;20207;-77
2022/08/14 09:03:24;;;;;;;14.18;13.48;;;30.40;55.80;;;;;;5011588;28;20274;-77
2022/08/14 09:05:52;;;;;;;17.88;17.05;;;31.10;54.50;;;;;;5010335;28;20203;-76
2022/08/14 09:08:21;;;;;;;35.80;34.03;;;31.00;54.50;;;;;;5010988;28;20530;-77
2022/08/14 09:10:47;;;;;;;55.95;53.15;;;31.30;53.90;;;;;;5015734;28;20203;-78
2022/08/14 09:13:17;;;;;;;69.10;65.80;;;31.50;53.10;;;;;;5014924;28;20183;-76
2022/08/14 09:15:48;;;;;;;69.15;65.82;;;31.80;52.40;;;;;;5014450;28;20218;-76
2022/08/14 09:18:16;;;;;;;73.13;69.43;;;31.70;52.30;;;;;;5016700;28;20207;-77
2022/08/14 09:20:45;;;;;;;65.68;62.50;;;31.60;51.90;;;;;;5015305;28;20566;-78
2022/08/14 09:23:13;;;;;;;65.97;62.75;;;31.60;52.50;;;;;;5015763;28;20599;-78
2022/08/14 09:25:40;;;;;;;74.07;70.22;;;31.60;52.30;;;;;;5015892;28;20206;-77
2022/08/14 09:28:07;;;;;;;64.43;61.22;;;31.70;52.00;;;;;;5015285;28;20671;-76
2022/08/14 09:30:37;;;;;;;71.57;68.15;;;31.60;52.20;;;;;;5014814;28;20211;-76
2022/08/14 09:33:19;;;;;;;77.22;73.43;;;31.60;51.80;;;;;;5013798;28;20206;-75
2022/08/14 09:35:51;;;;;;;77.63;73.78;;;31.60;51.80;;;;;;5015092;28;20695;-75
2022/08/14 09:38:39;;;;;;;91.72;87.28;;;32.10;51.10;;;;;;5014441;28;20191;-75
2022/08/14 09:41:30;;;;;;;171.52;163.38;;;32.70;51.00;;;;;;5017288;28;20222;-76
2022/08/14 09:44:07;;;;;;;170.70;162.25;;;33.10;48.50;;;;;;5014797;28;20648;-76
2022/08/14 09:46:34;;;;;;;150.63;143.35;;;33.10;48.30;;;;;;5015671;28;20179;-76
2022/08/14 09:49:03;;;;;;;177.15;168.70;;;32.60;47.60;;;;;;5013326;28;20735;-76
2022/08/14 09:51:29;;;;;;;155.60;147.82;;;32.30;48.60;;;;;;5013688;28;20204;-76
2022/08/14 09:54:06;;;;;;;165.35;157.38;;;32.40;48.20;;;;;;5014706;28;20186;-76
2022/08/14 09:56:47;;;;;;;152.27;145.10;;;32.10;48.60;;;;;;5013482;28;20286;-76
2022/08/14 09:59:20;;;;;;;132.73;126.50;;;31.60;49.30;;;;;;5014706;28;20274;-75
2022/08/14 10:01:48;;;;;;;133.07;126.78;;;31.60;48.80;;;;;;5013926;28;20199;-75
2022/08/14 10:04:32;;;;;;;127.90;121.43;;;31.80;48.60;;;;;;5014896;28;20237;-76
2022/08/14 10:06:57;;;;;;;138.88;131.63;;;32.00;48.40;;;;;;5012586;28;20270;-76
2022/08/14 10:09:23;;;;;;;140.88;134.13;;;32.40;47.90;;;;;;5014273;28;20610;-77
2022/08/14 10:11:57;;;;;;;167.32;159.32;;;32.40;48.10;;;;;;5014859;28;20211;-76
2022/08/14 10:14:27;;;;;;;144.05;137.13;;;32.80;47.50;;;;;;5013606;28;20183;-76
2022/08/14 10:16:55;;;;;;;155.50;148.05;;;32.80;46.90;;;;;;5014678;28;20732;-75
2022/08/14 10:19:25;;;;;;;161.25;153.50;;;32.70;47.80;;;;;;5015096;28;20188;-75
2022/08/14 10:22:06;;;;;;;149.38;142.15;;;32.90;46.80;;;;;;5016723;28;20200;-75
2022/08/14 10:24:45;;;;;;;155.55;147.90;;;33.40;46.40;;;;;;5016903;28;20184;-76
2022/08/14 10:27:22;;;;;;;111.38;105.93;;;33.80;45.80;;;;;;5013479;28;20594;-76
2022/08/14 10:29:59;;;;;;;99.85;95.05;;;34.10;45.40;;;;;;5014558;28;20179;-76
2022/08/14 10:32:26;;;;;;;99.97;95.10;;;33.80;45.50;;;;;;5012717;28;20211;-77
2022/08/14 10:35:05;;;;;;;96.20;91.63;;;33.70;45.70;;;;;;5014373;28;20553;-76
2022/08/14 10:37:38;;;;;;;95.60;91.10;;;33.70;46.10;;;;;;5013554;28;20293;-77
2022/08/14 10:40:04;;;;;;;99.20;94.50;;;33.60;45.80;;;;;;5014505;28;20211;-76
2022/08/14 10:42:39;;;;;;;82.70;78.68;;;33.70;45.20;;;;;;5014135;28;20270;-77
2022/08/14 10:45:30;;;;;;;93.15;88.75;;;33.70;45.20;;;;;;5014782;28;20179;-76
2022/08/14 10:47:58;;;;;;;93.20;88.60;;;33.70;45.60;;;;;;5013186;28;20194;-76
2022/08/14 10:50:34;;;;;;;83.43;79.28;;;33.80;45.50;;;;;;5014545;28;20249;-76
2022/08/14 10:53:04;;;;;;;99.15;94.28;;;33.50;45.10;;;;;;5013351;28;20203;-78
2022/08/14 10:55:38;;;;;;;87.32;83.22;;;33.30;46.10;;;;;;5013317;28;20242;-75
2022/08/14 10:58:11;;;;;;;93.93;89.43;;;33.70;45.50;;;;;;5013186;28;20587;-75
2022/08/14 11:00:41;;;;;;;82.20;78.30;;;34.30;45.50;;;;;;5013952;28;20227;-77
2022/08/14 11:03:12;;;;;;;67.75;64.43;;;34.50;44.00;;;;;;5012653;28;20180;-76
2022/08/14 11:05:45;;;;;;;68.75;65.25;;;34.80;44.00;;;;;;5013714;28;20698;-76
2022/08/14 11:08:14;;;;;;;69.15;65.65;;;34.50;44.00;;;;;;5004743;28;20211;-77
2022/08/14 11:10:46;;;;;;;69.95;66.38;;;34.60;43.80;;;;;;4998357;28;20213;-76
2022/08/14 11:13:21;;;;;;;63.70;60.55;;;34.20;43.90;;;;;;5009514;28;20184;-75
2022/08/14 11:15:48;;;;;;;67.43;63.97;;;34.70;44.20;;;;;;5006864;28;20609;-75
2022/08/14 11:18:15;;;;;;;94.07;89.30;;;35.30;43.20;;;;;;4995242;28;20231;-75
2022/08/14 11:20:48;;;;;;;87.85;83.57;;;35.40;41.90;;;;;;5013004;28;20207;-75
2022/08/14 11:23:14;;;;;;;97.85;93.13;;;35.20;42.20;;;;;;5011072;28;20596;-76
2022/08/14 11:25:48;;;;;;;89.10;84.85;;;35.60;41.60;;;;;;5012262;28;20191;-76
2022/08/14 11:28:15;;;;;;;95.40;90.85;;;35.50;41.40;;;;;;5011974;28;20183;-76
2022/08/14 11:30:47;;;;;;;104.57;99.68;;;35.30;41.10;;;;;;5011976;28;20305;-76
2022/08/14 11:33:14;;;;;;;103.70;98.38;;;35.40;40.70;;;;;;5011287;28;20183;-76
2022/08/14 11:35:40;;;;;;;109.78;104.47;;;35.50;40.40;;;;;;5013496;28;20179;-75
2022/08/14 11:38:06;;;;;;;88.80;84.57;;;35.60;40.80;;;;;;5017595;28;20575;-77
2022/08/14 11:40:37;;;;;;;103.95;98.82;;;35.80;40.20;;;;;;5024563;28;20246;-77
2022/08/14 11:43:06;;;;;;;36.78;34.92;;;36.10;39.90;;;;;;5000618;28;20182;-76
2022/08/14 11:45:34;;;;;;;30.65;29.17;;;36.10;39.80;;;;;;5005955;28;20718;-76
2022/08/14 11:48:13;;;;;;;12.73;12.13;;;37.50;39.10;;;;;;4994066;28;20195;-76
2022/08/14 11:50:39;;;;;;;9.45;8.88;;;38.70;38.00;;;;;;5014982;28;20265;-78
2022/08/14 11:53:18;;;;;;;7.63;6.93;;;38.30;37.40;;;;;;5034884;28;20187;-77
2022/08/14 11:55:46;;;;;;;7.80;7.40;;;37.90;37.50;;;;;;5035483;28;20190;-78
2022/08/14 11:58:15;;;;;;;6.45;5.90;;;36.80;38.90;;;;;;5017624;28;20637;-78
2022/08/14 12:00:53;;;;;;;6.15;5.63;;;36.80;38.00;;;;;;5008715;28;20849;-76
2022/08/14 12:03:19;;;;;;;5.97;5.68;;;37.80;37.10;;;;;;5013151;28;20194;-76
2022/08/14 12:05:45;;;;;;;6.00;5.57;;;37.20;37.50;;;;;;5011681;28;20530;-75
2022/08/14 12:08:11;;;;;;;7.07;6.68;;;37.10;37.50;;;;;;5010577;28;20194;-74
2022/08/14 12:10:39;;;;;;;7.35;6.88;;;37.50;36.30;;;;;;5013364;28;20305;-79
2022/08/14 12:13:14;;;;;;;6.70;6.35;;;37.50;36.70;;;;;;5024618;28;20270;-80
2022/08/14 12:15:41;;;;;;;5.68;5.38;;;37.20;36.90;;;;;;5009126;28;20203;-79
2022/08/14 12:18:08;;;;;;;6.43;6.00;;;37.20;37.20;;;;;;5022600;28;20773;-77
2022/08/14 12:20:36;;;;;;;6.05;5.63;;;37.20;36.10;;;;;;5046075;28;20202;-78
2022/08/14 12:23:04;;;;;;;7.45;6.97;;;37.50;36.20;;;;;;5043838;28;20225;-77
2022/08/14 12:25:31;;;;;;;7.10;6.60;;;37.90;36.30;;;;;;5023922;28;20191;-78
2022/08/14 12:28:00;;;;;;;7.93;7.43;;;38.20;35.80;;;;;;5016758;28;20188;-80
2022/08/14 12:30:32;;;;;;;7.22;6.80;;;38.50;35.80;;;;;;5012943;28;20350;-78
2022/08/14 12:33:00;;;;;;;8.50;8.00;;;38.40;35.70;;;;;;5015600;28;20209;-78
2022/08/14 12:35:41;;;;;;;8.73;8.25;;;38.60;35.30;;;;;;5015270;28;20222;-78
2022/08/14 12:38:12;;;;;;;9.80;9.18;;;37.90;35.50;;;;;;5014831;28;20225;-80
2022/08/14 12:40:46;;;;;;;8.73;8.20;;;38.30;35.30;;;;;;5012732;28;20265;-79
2022/08/14 12:43:12;;;;;;;7.80;7.30;;;38.10;34.70;;;;;;5013752;28;20200;-79
2022/08/14 12:45:38;;;;;;;10.18;9.68;;;37.80;36.50;;;;;;5013876;28;20180;-80
2022/08/14 12:48:04;;;;;;;7.40;7.10;;;38.60;35.70;;;;;;5013258;28;20608;-80